createdAt,value
2022-09-11T00:07:05.242Z,56.72
2022-09-11T00:09:42.819Z,56.89
2022-09-11T00:12:18.043Z,56.88
2022-09-11T00:14:57.433Z,57.01
2022-09-11T00:17:55.585Z,56.91
2022-09-11T00:20:33.768Z,56.85
2022-09-11T00:26:33.892Z,56.88
2022-09-11T00:36:06.369Z,56.88
2022-09-11T00:39:32.302Z,56.85
2022-09-11T00:42:35.383Z,56.79
2022-09-11T00:45:36.865Z,56.95
2022-09-11T00:48:36.192Z,57.16
2022-09-11T00:51:35.867Z,57.33
2022-09-11T00:57:47.962Z,57.12
2022-09-11T01:00:26.407Z,56.98
2022-09-11T01:03:26.099Z,57.03
2022-09-11T01:06:14.439Z,57.10
2022-09-11T01:08:50.602Z,57.00
2022-09-11T01:11:44.909Z,56.84
2022-09-11T01:18:09.333Z,56.98
2022-09-11T01:21:00.197Z,56.92
2022-09-11T01:27:53.792Z,56.93
2022-09-11T01:30:36.947Z,56.90
2022-09-11T01:39:38.272Z,57.15
2022-09-11T01:42:23.010Z,57.20
2022-09-11T01:45:02.634Z,56.81
2022-09-11T01:47:36.963Z,56.70
2022-09-11T01:50:18.440Z,56.44
2022-09-11T01:53:04.529Z,56.38
2022-09-11T01:55:49.356Z,56.38
2022-09-11T02:02:07.539Z,56.52
2022-09-11T02:04:48.150Z,56.74
2022-09-11T02:11:05.089Z,56.49
2022-09-11T02:14:09.631Z,56.50
2022-09-11T02:20:49.092Z,56.59
2022-09-11T02:23:30.169Z,56.77
2022-09-11T02:26:52.399Z,56.99
2022-09-11T02:29:54.334Z,57.16
2022-09-11T02:32:53.389Z,57.23
2022-09-11T02:35:29.817Z,57.34
2022-09-11T02:38:16.849Z,57.25
2022-09-11T02:44:37.059Z,57.24
2022-09-11T02:50:37.725Z,57.21
2022-09-11T02:54:08.064Z,57.28
2022-09-11T03:00:27.551Z,56.97
2022-09-11T03:03:02.495Z,56.83
2022-09-11T03:06:07.628Z,56.46
2022-09-11T03:08:46.635Z,56.52
2022-09-11T03:12:37.394Z,56.62
2022-09-11T03:16:02.231Z,56.72
2022-09-11T03:19:04.745Z,56.28
2022-09-11T03:21:44.402Z,56.16
2022-09-11T03:25:09.151Z,56.04
2022-09-11T03:36:58.730Z,56.99
2022-09-11T03:39:34.521Z,57.27
2022-09-11T03:42:14.198Z,57.19
2022-09-11T03:45:39.751Z,57.34
2022-09-11T03:49:03.520Z,57.50
2022-09-11T03:52:04.529Z,57.50
2022-09-11T03:54:49.001Z,57.43
2022-09-11T03:57:50.087Z,57.40
2022-09-11T04:00:54.532Z,57.47
2022-09-11T04:03:31.646Z,57.84
2022-09-11T04:06:34.538Z,57.91
2022-09-11T04:09:08.682Z,58.04
2022-09-11T04:12:14.454Z,58.12
2022-09-11T04:15:18.095Z,58.19
2022-09-11T04:18:02.181Z,58.48
2022-09-11T04:22:17.686Z,58.32
2022-09-11T04:25:41.363Z,58.24
2022-09-11T04:29:04.207Z,58.31
2022-09-11T04:32:07.099Z,58.18
2022-09-11T04:34:44.086Z,58.05
2022-09-11T04:38:04.772Z,58.04
2022-09-11T04:41:30.977Z,58.04
2022-09-11T04:44:30.304Z,58.18
2022-09-11T04:47:28.227Z,57.97
2022-09-11T04:50:28.939Z,58.00
2022-09-11T04:53:03.778Z,58.01
2022-09-11T04:56:03.214Z,57.92
2022-09-11T04:59:10.046Z,57.48
2022-09-11T05:01:52.419Z,57.28
2022-09-11T05:04:30.750Z,57.52
2022-09-11T05:07:05.047Z,57.55
2022-09-11T05:09:39.506Z,57.39
2022-09-11T05:12:14.591Z,57.22
2022-09-11T05:14:52.533Z,57.13
2022-09-11T05:17:57.088Z,57.28
2022-09-11T05:24:53.059Z,57.15
2022-09-11T05:27:30.125Z,57.24
2022-09-11T05:30:33.538Z,57.11
2022-09-11T05:33:16.851Z,57.15
2022-09-11T05:36:37.916Z,57.03
2022-09-11T05:40:00.467Z,57.03
2022-09-11T05:42:36.164Z,56.70
2022-09-11T05:45:22.649Z,56.73
2022-09-11T05:48:03.631Z,56.54
2022-09-11T05:54:00.950Z,56.34
2022-09-11T05:56:36.166Z,56.33
2022-09-11T05:59:39.841Z,56.30
2022-09-11T06:02:40.374Z,56.27
2022-09-11T06:05:44.954Z,56.25
2022-09-11T06:08:28.382Z,56.27
2022-09-11T06:11:30.321Z,56.24
2022-09-11T06:14:28.426Z,55.92
2022-09-11T06:17:31.905Z,56.01
2022-09-11T06:20:41.230Z,55.97
2022-09-11T06:26:39.306Z,55.94
2022-09-11T06:29:17.884Z,56.20
2022-09-11T06:31:58.322Z,56.22
2022-09-11T06:34:36.544Z,56.26
2022-09-11T06:37:37.120Z,56.21
2022-09-11T06:40:38.229Z,56.24
2022-09-11T06:43:39.047Z,56.43
2022-09-11T06:46:39.454Z,56.77
2022-09-11T06:49:17.040Z,57.39
2022-09-11T06:51:56.383Z,57.38
2022-09-11T06:57:51.450Z,57.84
2022-09-11T07:00:31.304Z,57.88
2022-09-11T07:03:11.988Z,58.10
2022-09-11T07:05:51.999Z,58.05
2022-09-11T07:08:53.267Z,58.05
2022-09-11T07:11:28.096Z,57.90
2022-09-11T07:15:15.965Z,58.13
2022-09-11T07:17:50.751Z,58.18
2022-09-11T07:20:53.577Z,58.20
2022-09-11T07:24:38.868Z,58.55
2022-09-11T07:28:04.965Z,58.49
2022-09-11T07:30:42.172Z,58.21
2022-09-11T07:33:18.845Z,58.28
2022-09-11T07:36:18.774Z,58.29
2022-09-11T07:38:58.337Z,58.62
2022-09-11T07:41:34.243Z,58.66
2022-09-11T07:44:17.151Z,58.77
2022-09-11T07:47:19.369Z,58.76
2022-09-11T07:49:52.707Z,58.96
2022-09-11T07:56:20.718Z,59.04
2022-09-11T07:58:57.265Z,58.85
2022-09-11T08:01:35.727Z,58.69
2022-09-11T08:04:11.723Z,58.68
2022-09-11T08:06:48.014Z,58.68
2022-09-11T08:09:21.186Z,58.66
2022-09-11T08:11:56.307Z,58.42
2022-09-11T08:14:29.307Z,58.37
2022-09-11T08:17:02.951Z,58.46
2022-09-11T08:19:39.223Z,58.45
2022-09-11T08:22:12.469Z,58.39
2022-09-11T08:24:45.054Z,58.05
2022-09-11T08:27:20.183Z,57.93
2022-09-11T08:29:53.375Z,57.18
2022-09-11T08:32:25.648Z,56.48
2022-09-11T08:34:59.842Z,56.68
2022-09-11T08:37:34.268Z,56.80
2022-09-11T08:40:10.438Z,55.77
2022-09-11T08:42:46.130Z,55.93
2022-09-11T08:45:21.610Z,55.34
2022-09-11T08:47:59.307Z,54.89
2022-09-11T08:50:36.231Z,54.69
2022-09-11T08:53:12.839Z,55.13
2022-09-11T08:55:48.463Z,54.94
2022-09-11T08:58:27.730Z,54.20
2022-09-11T09:01:09.858Z,53.97
2022-09-11T09:03:59.376Z,53.51
2022-09-11T09:06:43.893Z,53.54
2022-09-11T09:09:22.942Z,53.86
2022-09-11T09:11:59.983Z,54.03
2022-09-11T09:14:53.635Z,54.06
2022-09-11T09:17:28.155Z,53.85
2022-09-11T09:20:04.454Z,53.77
2022-09-11T09:22:44.138Z,53.28
2022-09-11T09:25:23.806Z,53.64
2022-09-11T09:28:00.592Z,53.74
2022-09-11T09:30:45.438Z,53.68
2022-09-11T09:33:31.994Z,53.35
2022-09-11T09:36:17.569Z,53.43
2022-09-11T09:38:50.293Z,53.47
2022-09-11T09:41:44.506Z,53.05
2022-09-11T09:44:24.412Z,52.75
2022-09-11T09:46:57.733Z,52.95
2022-09-11T09:49:31.812Z,52.81
2022-09-11T09:52:14.364Z,52.65
2022-09-11T09:54:53.694Z,52.10
2022-09-11T09:58:01.210Z,52.53
2022-09-11T10:00:39.406Z,52.53
2022-09-11T10:03:54.540Z,51.81
2022-09-11T10:06:58.901Z,51.45
2022-09-11T10:09:34.842Z,51.81
2022-09-11T10:16:02.926Z,51.10
2022-09-11T10:19:11.885Z,50.68
2022-09-11T10:22:01.177Z,50.86
2022-09-11T10:24:41.424Z,51.15
2022-09-11T10:31:08.405Z,50.82
2022-09-11T10:33:53.750Z,51.17
2022-09-11T10:36:34.954Z,51.14
2022-09-11T10:39:23.299Z,51.28
2022-09-11T10:45:35.157Z,50.44
2022-09-11T10:52:25.480Z,49.31
2022-09-11T10:55:19.147Z,48.55
2022-09-11T11:04:15.531Z,48.56
2022-09-11T11:07:08.397Z,48.22
2022-09-11T11:09:57.388Z,47.32
2022-09-11T11:12:53.242Z,48.01
2022-09-11T11:16:01.821Z,47.63
2022-09-11T11:23:23.524Z,48.03
2022-09-11T11:26:01.467Z,47.49
2022-09-11T11:29:23.048Z,47.16
2022-09-11T11:39:02.059Z,47.28
2022-09-11T11:42:09.075Z,46.64
2022-09-11T11:48:23.653Z,45.41
2022-09-11T11:51:44.601Z,44.95
2022-09-11T11:54:33.243Z,45.53
2022-09-11T12:07:53.395Z,43.67
2022-09-11T12:14:03.735Z,43.12
2022-09-11T12:16:41.103Z,42.64
2022-09-11T12:19:44.047Z,42.44
2022-09-11T12:22:53.401Z,42.27
2022-09-11T12:29:56.548Z,40.91
2022-09-11T12:32:46.122Z,41.04
2022-09-11T12:36:20.442Z,41.48
2022-09-11T12:39:29.387Z,41.69
2022-09-11T12:42:43.838Z,41.93
2022-09-11T12:45:38.604Z,41.92
2022-09-11T12:52:44.292Z,42.14
2022-09-11T12:55:36.554Z,42.03
2022-09-11T12:58:37.182Z,42.33
2022-09-11T13:04:29.580Z,43.01
2022-09-11T13:07:10.222Z,43.17
2022-09-11T13:09:49.917Z,42.96
2022-09-11T13:12:55.437Z,43.39
2022-09-11T13:16:08.977Z,43.47
2022-09-11T13:18:50.951Z,43.33
2022-09-11T13:21:34.579Z,43.67
2022-09-11T13:28:04.240Z,43.85
2022-09-11T13:31:00.915Z,44.03
2022-09-11T13:34:07.577Z,44.35
2022-09-11T13:37:10.140Z,44.30
2022-09-11T13:39:51.340Z,44.36
2022-09-11T13:49:38.798Z,43.75
2022-09-11T13:52:41.582Z,43.81
2022-09-11T13:55:39.715Z,43.16
2022-09-11T13:59:07.877Z,43.18
2022-09-11T14:02:09.621Z,43.77
2022-09-11T14:04:55.075Z,44.05
2022-09-11T14:07:30.157Z,44.39
2022-09-11T14:13:54.320Z,45.15
2022-09-11T14:17:01.618Z,44.88
2022-09-11T14:19:48.579Z,44.78
2022-09-11T14:23:00.853Z,45.11
2022-09-11T14:26:09.237Z,45.43
2022-09-11T14:32:40.936Z,46.96
2022-09-11T14:35:44.120Z,47.92
2022-09-11T14:38:55.399Z,49.50
2022-09-11T14:41:56.711Z,50.71
2022-09-11T14:44:33.652Z,58.15
2022-09-11T14:50:44.620Z,59.11
2022-09-11T14:53:21.807Z,59.34
2022-09-11T15:08:46.185Z,60.72
2022-09-11T15:11:57.814Z,60.75
2022-09-11T15:14:55.871Z,60.64
2022-09-11T15:17:42.991Z,60.14
2022-09-11T15:26:58.517Z,59.23
2022-09-11T15:30:24.552Z,59.19
2022-09-11T15:34:17.098Z,58.67
2022-09-11T15:40:39.958Z,58.26
2022-09-11T15:43:21.155Z,58.47
2022-09-11T15:49:34.195Z,58.37
2022-09-11T15:52:13.840Z,58.24
2022-09-11T15:54:53.140Z,58.24
2022-09-11T15:57:40.033Z,58.33
2022-09-11T16:00:45.057Z,58.35
2022-09-11T16:03:41.654Z,58.00
2022-09-11T16:09:28.425Z,57.54
2022-09-11T16:12:06.303Z,57.41
2022-09-11T16:17:54.326Z,57.84
2022-09-11T16:20:39.862Z,57.82
2022-09-11T16:23:43.631Z,57.79
2022-09-11T16:26:31.548Z,57.80
2022-09-11T16:32:59.894Z,57.94
2022-09-11T16:35:41.038Z,57.81
2022-09-11T16:38:44.219Z,57.46
2022-09-11T16:41:25.657Z,57.48
2022-09-11T16:44:36.537Z,57.45
2022-09-11T16:48:05.654Z,57.53
2022-09-11T16:50:51.844Z,57.06
2022-09-11T16:54:01.670Z,57.14
2022-09-11T16:56:46.054Z,57.36
2022-09-11T17:02:40.460Z,56.62
2022-09-11T17:05:40.672Z,56.61
2022-09-11T17:08:20.918Z,56.56
2022-09-11T17:14:30.826Z,56.69
2022-09-11T17:17:07.173Z,56.90
2022-09-11T17:22:57.445Z,57.01
2022-09-11T17:25:37.029Z,56.86
2022-09-11T17:28:24.386Z,56.90
2022-09-11T17:31:28.360Z,56.91
2022-09-11T17:34:32.245Z,57.02
2022-09-11T17:37:12.677Z,56.99
2022-09-11T17:39:51.365Z,57.06
2022-09-11T17:42:50.152Z,56.84
2022-09-11T17:45:54.521Z,56.95
2022-09-11T17:51:31.767Z,57.10
2022-09-11T17:54:37.731Z,56.99
2022-09-11T17:57:41.538Z,56.95
2022-09-11T18:00:30.885Z,56.82
2022-09-11T18:06:44.875Z,56.96
2022-09-11T18:09:29.820Z,57.06
2022-09-11T18:12:11.932Z,56.85
2022-09-11T18:14:54.998Z,56.95
2022-09-11T18:17:58.830Z,56.90
2022-09-11T18:24:09.918Z,57.27
2022-09-11T18:26:56.081Z,57.30
2022-09-11T18:30:01.195Z,57.56
2022-09-11T18:32:37.677Z,57.64
2022-09-11T18:35:42.962Z,57.81
2022-09-11T18:38:51.265Z,57.68
2022-09-11T18:42:03.275Z,57.52
2022-09-11T18:45:11.684Z,57.31
2022-09-11T18:54:35.926Z,57.69
2022-09-11T18:58:06.353Z,57.67
2022-09-11T19:00:48.771Z,57.90
2022-09-11T19:03:36.475Z,58.13
2022-09-11T19:06:25.827Z,58.03
2022-09-11T19:12:27.972Z,57.73
2022-09-11T19:18:34.147Z,58.01
2022-09-11T19:21:31.988Z,57.84
2022-09-11T19:24:32.617Z,57.70
2022-09-11T19:30:25.904Z,57.50
2022-09-11T19:33:05.810Z,57.34
2022-09-11T19:35:50.994Z,57.50
2022-09-11T19:38:34.992Z,57.46
2022-09-11T19:48:11.896Z,57.47
2022-09-11T19:50:49.050Z,57.64
2022-09-11T19:53:46.367Z,57.66
2022-09-11T19:56:25.910Z,57.76
2022-09-11T19:59:00.286Z,57.62
2022-09-11T20:01:40.346Z,57.51
2022-09-11T20:07:18.512Z,57.34
2022-09-11T20:09:50.916Z,57.42
2022-09-11T20:12:29.393Z,57.39
2022-09-11T20:15:15.279Z,57.28
2022-09-11T20:17:50.712Z,57.35
2022-09-11T20:20:36.835Z,57.20
2022-09-11T20:26:17.409Z,57.51
2022-09-11T20:29:03.014Z,57.60
2022-09-11T20:32:04.309Z,57.63
2022-09-11T20:34:41.190Z,57.60
2022-09-11T20:38:07.380Z,57.82
2022-09-11T20:40:44.500Z,57.80
2022-09-11T20:43:41.000Z,58.05
2022-09-11T20:47:04.856Z,58.16
2022-09-11T20:49:41.941Z,58.07
2022-09-11T20:55:42.564Z,58.44
2022-09-11T20:58:19.530Z,58.67
2022-09-11T21:04:17.197Z,58.83
2022-09-11T21:06:55.166Z,58.63
2022-09-11T21:09:28.733Z,58.47
2022-09-11T21:12:04.327Z,58.56
2022-09-11T21:14:40.750Z,58.79
2022-09-11T21:18:05.267Z,58.93
2022-09-11T21:20:41.904Z,58.98
2022-09-11T21:23:21.056Z,59.19
2022-09-11T21:26:26.605Z,59.43
2022-09-11T21:29:11.697Z,59.44
2022-09-11T21:31:56.130Z,59.46
2022-09-11T21:35:17.257Z,59.63
2022-09-11T21:38:00.480Z,59.80
2022-09-11T21:40:37.649Z,59.97
2022-09-11T21:43:12.434Z,59.98
2022-09-11T21:45:44.545Z,60.05
2022-09-11T21:51:41.881Z,60.12
2022-09-11T21:54:18.723Z,60.32
2022-09-11T22:00:24.470Z,60.50
2022-09-11T22:02:59.835Z,60.63
2022-09-11T22:12:13.526Z,60.31
2022-09-11T22:18:38.747Z,60.53
2022-09-11T22:24:44.442Z,60.33
2022-09-11T22:27:45.064Z,60.23
2022-09-11T22:31:13.485Z,60.01
2022-09-11T22:34:14.849Z,60.08
2022-09-11T22:36:55.139Z,60.19
2022-09-11T22:39:29.606Z,60.38
2022-09-11T22:42:09.324Z,60.39
2022-09-11T22:45:36.308Z,60.63
2022-09-11T22:48:14.557Z,60.90
2022-09-11T22:51:19.427Z,60.90
2022-09-11T22:53:55.103Z,61.05
2022-09-11T22:56:57.047Z,61.43
2022-09-11T22:59:31.652Z,61.29
2022-09-11T23:02:52.821Z,61.28
2022-09-11T23:08:49.437Z,61.28
2022-09-11T23:11:50.063Z,61.28
2022-09-11T23:15:19.195Z,61.65
2022-09-11T23:18:02.207Z,61.28
2022-09-11T23:24:06.544Z,61.42
2022-09-11T23:27:06.840Z,61.67
2022-09-11T23:29:41.698Z,61.88
2022-09-11T23:32:18.616Z,61.84
2022-09-11T23:35:16.691Z,61.81
2022-09-11T23:38:42.952Z,61.98
2022-09-11T23:44:45.306Z,61.93
2022-09-11T23:48:11.118Z,61.62
2022-09-11T23:50:45.810Z,61.33
2022-09-11T23:53:47.804Z,61.22
2022-09-11T23:56:50.547Z,61.27
